createdAt,value
2017-09-28T00:01:42.906Z,9.17
2017-09-28T00:04:11.959Z,9.24
2017-09-28T00:06:40.991Z,9.28
2017-09-28T00:09:10.039Z,9.29
2017-09-28T00:11:39.106Z,9.27
2017-09-28T00:14:08.146Z,9.23
2017-09-28T00:16:38.150Z,9.20
2017-09-28T00:19:07.227Z,9.19
2017-09-28T00:21:36.296Z,9.18
2017-09-28T00:24:05.350Z,9.03
2017-09-28T00:26:34.440Z,8.82
2017-09-28T00:29:04.472Z,8.68
2017-09-28T00:31:34.416Z,8.60
2017-09-28T00:34:04.417Z,8.43
2017-09-28T00:36:34.452Z,8.33
2017-09-28T00:39:03.491Z,8.25
2017-09-28T00:41:33.551Z,8.19
2017-09-28T00:44:02.602Z,8.18
2017-09-28T00:46:31.647Z,8.14
2017-09-28T00:49:00.720Z,8.10
2017-09-28T00:51:29.810Z,8.09
2017-09-28T00:53:59.462Z,8.10
2017-09-28T00:56:28.518Z,8.08
2017-09-28T00:58:57.618Z,8.06
2017-09-28T01:01:26.672Z,8.04
2017-09-28T01:03:55.708Z,8.05
2017-09-28T01:06:24.809Z,8.08
2017-09-28T01:08:54.522Z,8.07
2017-09-28T01:11:23.590Z,8.11
2017-09-28T01:13:52.714Z,8.11
2017-09-28T01:16:21.860Z,8.15
2017-09-28T01:18:50.916Z,8.10
2017-09-28T01:21:19.964Z,8.01
2017-09-28T01:23:49.030Z,7.96
2017-09-28T01:26:18.976Z,7.87
2017-09-28T01:28:48.051Z,7.86
2017-09-28T01:31:17.108Z,7.84
2017-09-28T01:33:47.092Z,7.81
2017-09-28T01:36:16.190Z,7.76
2017-09-28T01:38:45.235Z,7.75
2017-09-28T01:41:14.299Z,7.73
2017-09-28T01:43:43.352Z,7.76
2017-09-28T01:46:12.387Z,7.77
2017-09-28T01:48:41.451Z,7.84
2017-09-28T01:51:10.494Z,7.93
2017-09-28T01:53:39.543Z,8.11
2017-09-28T01:56:08.647Z,8.33
2017-09-28T01:58:42.068Z,8.48
2017-09-28T02:01:11.112Z,8.56
2017-09-28T02:03:40.180Z,8.62
2017-09-28T02:06:09.234Z,8.79
2017-09-28T02:08:38.343Z,8.91
2017-09-28T02:11:07.436Z,8.95
2017-09-28T02:13:36.487Z,8.93
2017-09-28T02:16:05.547Z,8.90
2017-09-28T02:18:34.610Z,8.85
2017-09-28T02:21:03.653Z,8.80
2017-09-28T02:23:32.697Z,8.67
2017-09-28T02:26:01.770Z,8.39
2017-09-28T02:28:31.778Z,8.13
2017-09-28T02:31:00.870Z,8.05
2017-09-28T02:33:29.914Z,8.00
2017-09-28T02:35:58.945Z,7.97
2017-09-28T02:38:28.099Z,7.96
2017-09-28T02:40:57.135Z,7.91
2017-09-28T02:43:26.192Z,7.89
2017-09-28T02:45:55.232Z,7.83
2017-09-28T02:48:24.278Z,7.82
2017-09-28T02:50:53.311Z,7.82
2017-09-28T02:53:22.380Z,7.78
2017-09-28T02:55:51.413Z,7.71
2017-09-28T02:58:20.450Z,7.70
2017-09-28T03:00:49.539Z,7.71
2017-09-28T03:03:19.523Z,7.74
2017-09-28T03:05:48.554Z,7.74
2017-09-28T03:08:17.606Z,7.73
2017-09-28T03:10:46.755Z,7.59
2017-09-28T03:13:15.791Z,7.47
2017-09-28T03:15:44.836Z,7.39
2017-09-28T03:18:13.930Z,7.34
2017-09-28T03:20:43.025Z,7.29
2017-09-28T03:23:12.055Z,7.25
2017-09-28T03:25:41.110Z,7.25
2017-09-28T03:28:10.142Z,7.32
2017-09-28T03:30:39.282Z,7.49
2017-09-28T03:33:08.399Z,7.57
2017-09-28T03:35:37.433Z,7.70
2017-09-28T03:38:06.489Z,7.83
2017-09-28T03:40:35.535Z,7.92
2017-09-28T03:43:04.588Z,7.95
2017-09-28T03:45:33.635Z,8.03
2017-09-28T03:48:02.677Z,8.16
2017-09-28T03:50:31.714Z,8.22
2017-09-28T03:53:00.885Z,8.26
2017-09-28T03:55:29.902Z,8.28
2017-09-28T03:57:58.933Z,8.23
2017-09-28T04:00:28.006Z,8.23
2017-09-28T04:02:57.097Z,8.21
2017-09-28T04:05:26.129Z,8.18
2017-09-28T04:07:55.172Z,8.08
2017-09-28T04:10:24.279Z,7.94
2017-09-28T04:12:53.338Z,7.87
2017-09-28T04:15:22.403Z,7.76
2017-09-28T04:17:51.483Z,7.78
2017-09-28T04:20:20.530Z,7.82
2017-09-28T04:22:49.570Z,7.80
2017-09-28T04:25:18.622Z,7.77
2017-09-28T04:27:47.663Z,7.71
2017-09-28T04:30:16.726Z,7.67
2017-09-28T04:32:46.693Z,7.64
2017-09-28T04:35:15.724Z,7.64
2017-09-28T04:37:44.787Z,7.63
2017-09-28T04:40:16.115Z,7.66
2017-09-28T04:42:46.093Z,7.69
2017-09-28T04:45:15.126Z,7.71
2017-09-28T04:47:44.227Z,7.70
2017-09-28T04:50:13.294Z,7.70
2017-09-28T04:52:42.376Z,7.70
2017-09-28T04:55:11.538Z,7.79
2017-09-28T04:57:40.598Z,7.96
2017-09-28T05:00:09.655Z,8.11
2017-09-28T05:02:38.666Z,8.21
2017-09-28T05:05:07.790Z,8.36
2017-09-28T05:07:36.831Z,8.54
2017-09-28T05:10:06.075Z,8.70
2017-09-28T05:12:35.122Z,8.78
2017-09-28T05:15:04.244Z,8.81
2017-09-28T05:17:33.425Z,8.83
2017-09-28T05:20:03.581Z,8.86
2017-09-28T05:22:32.951Z,8.91
2017-09-28T05:25:02.211Z,8.93
2017-09-28T05:27:31.250Z,8.95
2017-09-28T05:30:00.286Z,8.99
2017-09-28T05:32:29.483Z,9.04
2017-09-28T05:34:58.535Z,9.13
2017-09-28T05:37:27.644Z,9.22
2017-09-28T05:39:57.557Z,9.21
2017-09-28T05:42:26.640Z,9.18
2017-09-28T05:44:55.762Z,9.05
2017-09-28T05:47:25.817Z,9.10
2017-09-28T05:49:54.871Z,9.22
2017-09-28T05:52:23.912Z,9.37
2017-09-28T05:54:53.008Z,9.53
2017-09-28T05:57:22.033Z,9.73
2017-09-28T05:59:51.093Z,9.93
2017-09-28T06:02:20.137Z,10.13
2017-09-28T06:04:49.410Z,10.29
2017-09-28T06:07:18.458Z,10.45
2017-09-28T06:09:47.555Z,10.66
2017-09-28T06:12:16.566Z,10.80
2017-09-28T06:14:45.614Z,10.92
2017-09-28T06:17:14.688Z,11.08
2017-09-28T06:19:46.279Z,11.24
2017-09-28T06:22:19.655Z,11.37
2017-09-28T06:24:48.987Z,11.53
2017-09-28T06:27:18.407Z,11.69
2017-09-28T06:29:47.477Z,11.83
2017-09-28T06:32:16.541Z,11.88
2017-09-28T06:34:45.622Z,11.95
2017-09-28T06:37:14.670Z,12.04
2017-09-28T06:39:43.754Z,12.14
2017-09-28T06:42:12.816Z,12.34
2017-09-28T06:44:41.908Z,12.50
2017-09-28T06:47:10.966Z,12.68
2017-09-28T06:49:40.046Z,12.86
2017-09-28T06:52:09.065Z,12.97
2017-09-28T06:54:38.289Z,13.03
2017-09-28T06:57:07.334Z,13.19
2017-09-28T06:59:40.072Z,13.16
2017-09-28T07:02:22.762Z,13.22
2017-09-28T07:04:53.301Z,13.36
2017-09-28T07:07:23.706Z,13.49
2017-09-28T07:09:53.051Z,13.67
2017-09-28T07:12:22.114Z,13.80
2017-09-28T07:14:52.813Z,13.82
2017-09-28T07:17:22.810Z,13.85
2017-09-28T07:19:53.413Z,13.89
2017-09-28T07:22:23.181Z,14.07
2017-09-28T07:24:52.234Z,14.20
2017-09-28T07:27:22.126Z,14.29
2017-09-28T07:29:51.839Z,14.50
2017-09-28T07:32:20.931Z,14.62
2017-09-28T07:34:52.698Z,14.69
2017-09-28T07:37:22.549Z,14.84
2017-09-28T07:39:51.613Z,14.91
2017-09-28T07:42:21.521Z,14.91
2017-09-28T07:44:50.569Z,15.03
2017-09-28T07:47:20.811Z,15.07
2017-09-28T07:49:51.022Z,15.19
2017-09-28T07:52:20.102Z,15.22
2017-09-28T07:54:50.119Z,15.34
2017-09-28T07:57:20.447Z,15.35
2017-09-28T07:59:49.482Z,15.52
2017-09-28T08:02:19.571Z,15.65
2017-09-28T08:04:48.727Z,15.81
2017-09-28T08:07:17.776Z,15.91
2017-09-28T08:09:46.830Z,16.08
2017-09-28T08:12:15.879Z,16.38
2017-09-28T08:14:44.930Z,16.73
2017-09-28T08:17:13.967Z,16.95
2017-09-28T08:19:43.033Z,17.01
2017-09-28T08:22:12.151Z,17.20
2017-09-28T08:24:41.239Z,17.30
2017-09-28T08:27:10.290Z,17.35
2017-09-28T08:29:39.338Z,17.27
2017-09-28T08:32:08.389Z,17.44
2017-09-28T08:34:37.443Z,17.65
2017-09-28T08:37:06.478Z,17.73
2017-09-28T08:39:35.529Z,18.12
2017-09-28T08:42:04.595Z,18.41
2017-09-28T08:44:33.660Z,18.86
2017-09-28T08:47:02.697Z,19.09
2017-09-28T08:49:33.757Z,19.56
2017-09-28T08:52:02.755Z,20.00
2017-09-28T08:54:31.811Z,20.34
2017-09-28T08:57:00.880Z,20.69
2017-09-28T08:59:29.906Z,20.84
2017-09-28T09:01:58.967Z,21.53
2017-09-28T09:04:29.349Z,21.76
2017-09-28T09:06:58.727Z,21.82
2017-09-28T09:09:27.854Z,22.06
2017-09-28T09:11:57.318Z,22.75
2017-09-28T09:14:26.458Z,23.51
2017-09-28T09:16:55.506Z,23.96
2017-09-28T09:19:24.574Z,24.11
2017-09-28T09:21:53.623Z,24.51
2017-09-28T09:24:22.660Z,25.58
2017-09-28T09:26:52.729Z,26.30
2017-09-28T09:29:21.799Z,27.18
2017-09-28T09:31:51.498Z,27.93
2017-09-28T09:34:20.534Z,28.46
2017-09-28T09:36:50.634Z,28.04
2017-09-28T09:39:20.606Z,26.94
2017-09-28T09:41:49.651Z,26.83
2017-09-28T09:44:19.587Z,27.95
2017-09-28T09:46:48.627Z,29.01
2017-09-28T09:49:17.670Z,29.95
2017-09-28T09:51:46.739Z,30.19
2017-09-28T09:54:15.803Z,30.95
2017-09-28T09:56:45.673Z,29.23
2017-09-28T09:59:14.723Z,30.02
2017-09-28T10:01:44.477Z,30.11
2017-09-28T10:04:14.084Z,30.22
2017-09-28T10:06:49.294Z,30.21
2017-09-28T10:09:24.375Z,30.09
2017-09-28T10:11:58.594Z,30.10
2017-09-28T10:14:30.283Z,29.83
2017-09-28T10:16:59.317Z,28.98
2017-09-28T10:19:30.762Z,29.03
2017-09-28T10:22:00.577Z,29.01
2017-09-28T10:24:29.800Z,28.52
2017-09-28T10:27:01.872Z,27.67
2017-09-28T10:29:31.977Z,27.87
2017-09-28T10:32:01.002Z,27.79
2017-09-28T10:34:33.135Z,27.87
2017-09-28T10:37:03.284Z,27.33
2017-09-28T10:39:32.357Z,26.63
2017-09-28T10:42:04.792Z,26.40
2017-09-28T10:44:34.807Z,25.87
2017-09-28T10:47:03.847Z,25.76
2017-09-28T10:49:35.151Z,25.92
2017-09-28T10:52:05.104Z,25.24
2017-09-28T10:54:34.171Z,25.75
2017-09-28T10:57:04.589Z,25.90
2017-09-28T10:59:34.511Z,25.92
2017-09-28T11:02:03.539Z,26.09
2017-09-28T11:04:35.330Z,26.35
2017-09-28T11:07:05.205Z,26.92
2017-09-28T11:09:34.289Z,27.72
2017-09-28T11:12:04.995Z,28.12
2017-09-28T11:14:34.837Z,29.28
2017-09-28T11:17:03.970Z,29.94
2017-09-28T11:19:34.561Z,31.33
2017-09-28T11:22:06.143Z,31.57
2017-09-28T11:24:35.941Z,31.37
2017-09-28T11:27:08.413Z,30.99
2017-09-28T11:29:37.894Z,30.13
2017-09-28T11:32:06.982Z,30.45
2017-09-28T11:34:36.907Z,29.78
2017-09-28T11:37:05.956Z,30.25
2017-09-28T11:39:35.007Z,30.31
2017-09-28T11:42:04.428Z,29.80
2017-09-28T11:44:33.503Z,28.78
2017-09-28T11:47:04.644Z,29.14
2017-09-28T11:49:34.447Z,29.91
2017-09-28T11:52:03.477Z,30.99
2017-09-28T11:54:34.259Z,31.44
2017-09-28T11:57:03.564Z,31.55
2017-09-28T11:59:32.667Z,31.52
2017-09-28T12:02:04.743Z,31.93
2017-09-28T12:04:35.332Z,31.46
2017-09-28T12:07:04.419Z,30.00
2017-09-28T12:09:35.858Z,29.12
2017-09-28T12:12:05.636Z,29.45
2017-09-28T12:14:34.667Z,29.59
2017-09-28T12:17:05.546Z,29.71
2017-09-28T12:19:35.381Z,30.00
2017-09-28T12:22:04.412Z,30.38
2017-09-28T12:24:37.769Z,29.97
2017-09-28T12:27:06.820Z,30.71
2017-09-28T12:29:36.964Z,31.12
2017-09-28T12:32:07.849Z,30.99
2017-09-28T12:34:36.868Z,30.97
2017-09-28T12:37:05.911Z,30.92
2017-09-28T12:39:34.990Z,31.06
2017-09-28T12:42:04.032Z,31.29
2017-09-28T12:44:33.075Z,30.60
2017-09-28T12:47:02.767Z,30.39
2017-09-28T12:49:31.823Z,30.89
2017-09-28T12:52:00.858Z,31.29
2017-09-28T12:54:29.952Z,31.46
2017-09-28T12:56:59.018Z,31.22
2017-09-28T12:59:28.079Z,30.65
2017-09-28T13:01:57.189Z,30.55
2017-09-28T13:04:26.207Z,30.55
2017-09-28T13:06:55.252Z,30.49
2017-09-28T13:09:24.326Z,30.30
2017-09-28T13:11:53.347Z,30.31
2017-09-28T13:14:22.415Z,30.43
2017-09-28T13:16:51.487Z,30.43
2017-09-28T13:19:20.534Z,30.64
2017-09-28T13:21:49.640Z,30.87
2017-09-28T13:24:18.737Z,31.23
2017-09-28T13:26:47.995Z,31.08
2017-09-28T13:29:17.059Z,30.69
2017-09-28T13:31:46.119Z,30.71
2017-09-28T13:34:15.319Z,30.70
2017-09-28T13:36:44.392Z,30.30
2017-09-28T13:39:13.442Z,29.92
2017-09-28T13:41:42.532Z,29.50
2017-09-28T13:44:11.571Z,28.95
2017-09-28T13:46:40.647Z,28.32
2017-09-28T13:49:09.709Z,28.10
2017-09-28T13:51:38.727Z,27.95
2017-09-28T13:54:07.812Z,27.75
2017-09-28T13:56:36.858Z,27.06
2017-09-28T13:59:05.979Z,26.21
2017-09-28T14:01:35.102Z,25.51
2017-09-28T14:04:04.138Z,25.14
2017-09-28T14:06:33.228Z,24.81
2017-09-28T14:09:02.301Z,24.71
2017-09-28T14:11:31.374Z,24.87
2017-09-28T14:14:00.570Z,25.08
2017-09-28T14:16:29.678Z,24.97
2017-09-28T14:18:58.760Z,25.29
2017-09-28T14:21:27.900Z,25.47
2017-09-28T14:23:56.968Z,25.41
2017-09-28T14:26:26.001Z,25.46
2017-09-28T14:28:55.079Z,25.95
2017-09-28T14:31:24.127Z,26.96
2017-09-28T14:33:53.221Z,28.01
2017-09-28T14:36:22.320Z,28.42
2017-09-28T14:38:51.512Z,28.44
2017-09-28T14:41:20.555Z,28.16
2017-09-28T14:43:49.599Z,26.98
2017-09-28T14:46:18.749Z,26.31
2017-09-28T14:48:47.798Z,25.53
2017-09-28T14:51:16.843Z,25.12
2017-09-28T14:53:46.893Z,25.32
2017-09-28T14:56:15.954Z,25.12
2017-09-28T14:58:45.092Z,25.08
2017-09-28T15:01:14.207Z,25.50
2017-09-28T15:03:46.130Z,25.64
2017-09-28T15:06:16.135Z,25.74
2017-09-28T15:08:45.216Z,25.52
2017-09-28T15:11:15.299Z,25.36
2017-09-28T15:13:44.345Z,25.34
2017-09-28T15:16:13.416Z,25.29
2017-09-28T15:18:42.458Z,25.26
2017-09-28T15:21:11.498Z,24.72
2017-09-28T15:23:40.558Z,24.45
2017-09-28T15:26:09.607Z,24.11
2017-09-28T15:28:38.650Z,24.18
2017-09-28T15:31:07.701Z,24.14
2017-09-28T15:33:36.741Z,24.04
2017-09-28T15:36:05.787Z,23.92
2017-09-28T15:38:34.873Z,23.74
2017-09-28T15:41:04.932Z,23.57
2017-09-28T15:43:34.055Z,23.46
2017-09-28T15:46:03.861Z,23.05
2017-09-28T15:48:33.586Z,23.04
2017-09-28T15:51:02.855Z,23.02
2017-09-28T15:53:35.233Z,23.10
2017-09-28T15:56:04.429Z,23.22
2017-09-28T15:58:33.622Z,23.25
2017-09-28T16:01:03.031Z,23.23
2017-09-28T16:03:32.882Z,23.21
2017-09-28T16:06:02.286Z,23.16
2017-09-28T16:08:31.387Z,23.00
2017-09-28T16:11:00.437Z,22.88
2017-09-28T16:13:30.505Z,22.71
2017-09-28T16:16:00.067Z,22.46
2017-09-28T16:18:29.123Z,22.26
2017-09-28T16:20:58.177Z,21.99
2017-09-28T16:23:27.264Z,21.70
2017-09-28T16:25:56.317Z,21.44
2017-09-28T16:28:25.415Z,21.07
2017-09-28T16:30:54.452Z,20.74
2017-09-28T16:33:23.509Z,20.46
2017-09-28T16:35:52.604Z,20.20
2017-09-28T16:38:21.652Z,19.86
2017-09-28T16:40:50.697Z,19.66
2017-09-28T16:43:19.738Z,19.44
2017-09-28T16:45:48.787Z,19.22
2017-09-28T16:48:18.068Z,18.98
2017-09-28T16:50:47.129Z,18.79
2017-09-28T16:53:16.170Z,18.60
2017-09-28T16:55:45.241Z,18.40
2017-09-28T16:58:14.274Z,18.22
2017-09-28T17:00:43.306Z,18.10
2017-09-28T17:03:12.398Z,17.97
2017-09-28T17:05:41.799Z,17.79
2017-09-28T17:08:11.540Z,17.61
2017-09-28T17:10:40.648Z,17.48
2017-09-28T17:13:09.864Z,17.36
2017-09-28T17:15:39.166Z,17.18
2017-09-28T17:18:08.243Z,17.02
2017-09-28T17:20:37.822Z,16.78
2017-09-28T17:23:06.893Z,16.66
2017-09-28T17:25:35.986Z,16.47
2017-09-28T17:28:06.211Z,16.33
2017-09-28T17:30:35.313Z,16.16
2017-09-28T17:33:04.393Z,16.03
2017-09-28T17:35:33.482Z,15.89
2017-09-28T17:38:02.635Z,15.78
2017-09-28T17:40:31.819Z,15.66
2017-09-28T17:43:00.993Z,15.56
2017-09-28T17:45:30.115Z,15.43
2017-09-28T17:48:00.164Z,15.37
2017-09-28T17:50:29.287Z,15.24
2017-09-28T17:52:58.407Z,15.13
2017-09-28T17:55:27.465Z,15.02
2017-09-28T17:57:56.634Z,14.92
2017-09-28T18:00:27.783Z,14.83
2017-09-28T18:02:56.883Z,14.74
2017-09-28T18:05:26.401Z,14.69
2017-09-28T18:07:55.445Z,14.68
2017-09-28T18:10:25.543Z,14.67
2017-09-28T18:12:55.570Z,14.46
2017-09-28T18:15:24.607Z,14.30
2017-09-28T18:17:55.794Z,14.17
2017-09-28T18:20:24.885Z,14.09
2017-09-28T18:22:53.978Z,14.02
2017-09-28T18:25:24.182Z,13.97
2017-09-28T18:27:53.304Z,13.87
2017-09-28T18:30:23.349Z,13.79
2017-09-28T18:32:52.407Z,13.71
2017-09-28T18:35:22.454Z,13.64
2017-09-28T18:37:51.764Z,13.57
2017-09-28T18:40:20.873Z,13.53
2017-09-28T18:42:50.212Z,13.49
2017-09-28T18:45:19.460Z,13.46
2017-09-28T18:47:48.543Z,13.46
2017-09-28T18:50:17.974Z,13.45
2017-09-28T18:52:47.074Z,13.41
2017-09-28T18:55:16.152Z,13.37
2017-09-28T18:57:45.285Z,13.35
2017-09-28T19:00:15.219Z,13.33
2017-09-28T19:02:44.341Z,13.32
2017-09-28T19:05:13.471Z,13.34
2017-09-28T19:07:42.504Z,13.23
2017-09-28T19:10:11.741Z,13.14
2017-09-28T19:12:40.790Z,13.05
2017-09-28T19:15:09.847Z,12.95
2017-09-28T19:17:39.196Z,12.92
2017-09-28T19:20:08.291Z,12.82
2017-09-28T19:22:37.323Z,12.77
2017-09-28T19:25:06.832Z,12.78
2017-09-28T19:27:35.873Z,12.83
2017-09-28T19:30:05.318Z,12.85
2017-09-28T19:32:34.459Z,12.85
2017-09-28T19:35:03.498Z,12.79
2017-09-28T19:37:32.577Z,12.73
2017-09-28T19:40:01.647Z,12.69
2017-09-28T19:42:30.707Z,12.64
2017-09-28T19:44:59.761Z,12.62
2017-09-28T19:47:28.805Z,12.60
2017-09-28T19:49:57.976Z,12.58
2017-09-28T19:52:27.100Z,12.50
2017-09-28T19:54:56.173Z,12.48
2017-09-28T19:57:26.588Z,12.52
2017-09-28T19:59:55.656Z,12.52
2017-09-28T20:02:24.808Z,12.47
2017-09-28T20:04:53.870Z,12.41
2017-09-28T20:07:22.923Z,12.37
2017-09-28T20:09:52.983Z,12.33
2017-09-28T20:12:22.902Z,12.28
2017-09-28T20:14:53.270Z,12.26
2017-09-28T20:17:22.394Z,12.20
2017-09-28T20:19:51.545Z,12.13
2017-09-28T20:22:20.752Z,12.08
2017-09-28T20:24:49.831Z,12.05
2017-09-28T20:27:20.075Z,12.00
2017-09-28T20:29:49.154Z,11.91
2017-09-28T20:32:18.234Z,11.85
2017-09-28T20:34:47.342Z,11.80
2017-09-28T20:37:16.416Z,11.75
2017-09-28T20:39:45.496Z,11.70
2017-09-28T20:42:14.584Z,11.67
2017-09-28T20:44:43.640Z,11.65
2017-09-28T20:47:12.698Z,11.64
2017-09-28T20:49:41.755Z,11.61
2017-09-28T20:52:10.816Z,11.59
2017-09-28T20:54:39.884Z,11.57
2017-09-28T20:57:08.956Z,11.60
2017-09-28T20:59:38.009Z,11.61
2017-09-28T21:02:07.054Z,11.60
2017-09-28T21:04:38.218Z,11.55
2017-09-28T21:07:11.757Z,11.48
2017-09-28T21:09:40.815Z,11.43
2017-09-28T21:12:10.063Z,11.39
2017-09-28T21:14:39.105Z,11.37
2017-09-28T21:17:08.180Z,11.34
2017-09-28T21:19:38.755Z,11.32
2017-09-28T21:22:07.803Z,11.33
2017-09-28T21:24:37.121Z,11.32
2017-09-28T21:27:08.458Z,11.31
2017-09-28T21:29:42.542Z,11.32
2017-09-28T21:32:15.129Z,11.32
2017-09-28T21:34:47.082Z,11.27
2017-09-28T21:37:16.983Z,11.18
2017-09-28T21:39:46.210Z,11.10
2017-09-28T21:42:15.231Z,11.05
2017-09-28T21:44:44.358Z,11.00
2017-09-28T21:47:13.441Z,10.98
2017-09-28T21:49:42.535Z,10.97
2017-09-28T21:52:11.687Z,10.96
2017-09-28T21:54:41.146Z,10.96
2017-09-28T21:57:14.062Z,10.97
2017-09-28T21:59:43.478Z,11.00
2017-09-28T22:02:12.832Z,11.00
2017-09-28T22:04:42.211Z,11.06
2017-09-28T22:07:12.307Z,11.19
2017-09-28T22:09:41.448Z,11.32
2017-09-28T22:12:10.557Z,11.43
2017-09-28T22:14:41.011Z,11.48
2017-09-28T22:17:11.414Z,11.49
2017-09-28T22:19:41.381Z,11.48
2017-09-28T22:22:11.888Z,11.47
2017-09-28T22:24:42.368Z,11.47
2017-09-28T22:27:11.522Z,11.51
2017-09-28T22:29:40.608Z,11.55
2017-09-28T22:32:11.302Z,11.57
2017-09-28T22:34:41.437Z,11.68
2017-09-28T22:37:10.970Z,11.75
2017-09-28T22:39:40.615Z,11.74
2017-09-28T22:42:10.808Z,11.75
2017-09-28T22:44:40.016Z,11.73
2017-09-28T22:47:10.852Z,11.72
2017-09-28T22:49:39.942Z,11.71
2017-09-28T22:52:10.073Z,11.71
2017-09-28T22:54:39.959Z,11.71
2017-09-28T22:57:10.818Z,11.74
2017-09-28T22:59:41.958Z,11.79
2017-09-28T23:02:12.492Z,11.88
2017-09-28T23:04:41.791Z,11.93
2017-09-28T23:07:10.827Z,11.97
2017-09-28T23:09:40.519Z,11.99
2017-09-28T23:12:09.860Z,12.05
2017-09-28T23:14:40.158Z,12.12
2017-09-28T23:17:10.201Z,12.23
2017-09-28T23:19:39.475Z,12.26
2017-09-28T23:22:08.944Z,12.30
2017-09-28T23:24:39.302Z,12.24
2017-09-28T23:27:08.433Z,12.16
2017-09-28T23:29:37.795Z,12.06
2017-09-28T23:32:06.860Z,11.99
2017-09-28T23:34:36.131Z,11.95
2017-09-28T23:37:05.171Z,11.87
2017-09-28T23:39:35.932Z,11.82
2017-09-28T23:42:04.965Z,11.77
2017-09-28T23:44:34.039Z,11.74
2017-09-28T23:47:03.999Z,11.71
2017-09-28T23:49:33.050Z,11.69
2017-09-28T23:52:02.107Z,11.69
2017-09-28T23:54:31.170Z,11.67
2017-09-28T23:57:03.867Z,11.67
2017-09-28T23:59:32.951Z,11.66
